createdAt,value
2019-06-10T00:00:53.620Z,4.42
2019-06-10T00:03:21.909Z,3.85
2019-06-10T00:05:51.731Z,4.10
2019-06-10T00:08:20.871Z,3.90
2019-06-10T00:10:51.093Z,3.90
2019-06-10T00:13:20.954Z,4.27
2019-06-10T00:15:51.517Z,4.00
2019-06-10T00:18:35.190Z,3.70
2019-06-10T00:20:51.254Z,4.47
2019-06-10T00:23:21.250Z,4.53
2019-06-10T00:28:21.594Z,4.67
2019-06-10T00:30:51.423Z,4.40
2019-06-10T00:33:21.456Z,4.87
2019-06-10T00:35:51.320Z,4.17
2019-06-10T00:38:21.435Z,4.13
2019-06-10T00:40:51.357Z,4.73
2019-06-10T00:43:21.362Z,4.50
2019-06-10T00:45:51.385Z,4.63
2019-06-10T00:48:28.279Z,4.40
2019-06-10T00:50:51.637Z,4.35
2019-06-10T00:53:21.204Z,4.03
2019-06-10T00:55:51.618Z,4.17
2019-06-10T00:58:21.654Z,4.37
2019-06-10T01:00:51.704Z,4.60
2019-06-10T01:03:20.926Z,4.27
2019-06-10T01:05:50.890Z,4.17
2019-06-10T01:08:21.435Z,3.83
2019-06-10T01:10:51.999Z,4.00
2019-06-10T01:13:20.837Z,4.97
2019-06-10T01:15:51.116Z,4.97
2019-06-10T01:19:01.453Z,3.90
2019-06-10T01:21:31.374Z,4.23
2019-06-10T01:24:01.212Z,4.40
2019-06-10T01:26:31.040Z,4.00
2019-06-10T01:31:38.759Z,3.85
2019-06-10T01:34:07.395Z,4.03
2019-06-10T01:36:37.200Z,4.12
2019-06-10T01:39:41.129Z,3.70
2019-06-10T01:42:12.250Z,4.30
2019-06-10T01:44:41.201Z,4.10
2019-06-10T01:47:11.845Z,4.12
2019-06-10T01:49:41.242Z,4.83
2019-06-10T01:52:11.975Z,4.15
2019-06-10T01:54:41.894Z,4.43
2019-06-10T01:57:12.004Z,4.73
2019-06-10T01:59:41.288Z,4.30
2019-06-10T02:04:48.615Z,4.12
2019-06-10T02:07:18.485Z,4.00
2019-06-10T02:09:46.900Z,4.30
2019-06-10T02:12:17.605Z,3.83
2019-06-10T02:14:45.195Z,3.83
2019-06-10T02:17:16.052Z,3.93
2019-06-10T02:19:43.473Z,3.75
2019-06-10T02:22:14.970Z,4.23
2019-06-10T02:24:41.787Z,5.33
2019-06-10T02:27:13.007Z,4.00
2019-06-10T02:29:41.238Z,4.10
2019-06-10T02:32:14.577Z,5.30
2019-06-10T02:34:53.225Z,5.10
2019-06-10T02:37:13.641Z,4.05
2019-06-10T02:39:43.745Z,4.93
2019-06-10T02:44:59.060Z,4.50
2019-06-10T02:47:33.460Z,4.13
2019-06-10T02:50:03.317Z,4.75
2019-06-10T02:52:33.002Z,4.60
2019-06-10T02:54:57.888Z,4.40
2019-06-10T02:57:33.757Z,4.87
2019-06-10T02:59:56.203Z,5.20
2019-06-10T03:02:31.226Z,5.12
2019-06-10T03:04:54.502Z,5.83
2019-06-10T03:07:26.801Z,4.60
2019-06-10T03:09:53.746Z,5.50
2019-06-10T03:12:24.567Z,5.35
2019-06-10T03:14:52.829Z,4.50
2019-06-10T03:20:02.359Z,5.30
2019-06-10T03:22:30.050Z,4.70
2019-06-10T03:24:58.345Z,5.03
2019-06-10T03:27:27.959Z,6.30
2019-06-10T03:29:56.633Z,5.25
2019-06-10T03:32:32.133Z,4.90
2019-06-10T03:34:55.295Z,5.57
2019-06-10T03:37:44.282Z,5.23
2019-06-10T03:40:13.150Z,5.43
2019-06-10T03:42:42.883Z,6.00
2019-06-10T03:45:44.862Z,6.60
2019-06-10T03:48:13.181Z,6.10
2019-06-10T03:50:43.111Z,6.40
2019-06-10T03:53:12.837Z,6.10
2019-06-10T03:55:42.378Z,6.70
2019-06-10T03:58:12.560Z,5.70
2019-06-10T04:00:43.092Z,6.10
2019-06-10T04:03:12.182Z,5.50
2019-06-10T04:05:42.362Z,6.20
2019-06-10T04:08:12.565Z,6.23
2019-06-10T04:10:42.977Z,5.87
2019-06-10T04:15:53.288Z,5.58
2019-06-10T04:18:22.508Z,5.90
2019-06-10T04:20:52.879Z,5.27
2019-06-10T04:23:23.828Z,5.50
2019-06-10T04:25:52.694Z,5.50
2019-06-10T04:28:24.143Z,5.53
2019-06-10T04:30:53.452Z,5.00
2019-06-10T04:33:22.874Z,5.60
2019-06-10T04:35:51.970Z,5.00
2019-06-10T04:38:22.946Z,6.90
2019-06-10T04:40:52.526Z,5.63
2019-06-10T04:43:23.110Z,5.33
2019-06-10T04:45:52.754Z,5.27
2019-06-10T04:48:23.201Z,6.23
2019-06-10T04:50:53.426Z,5.40
2019-06-10T04:53:23.689Z,6.37
2019-06-10T04:55:52.296Z,5.80
2019-06-10T04:58:23.880Z,5.53
2019-06-10T05:00:52.347Z,6.25
2019-06-10T05:03:23.521Z,5.70
2019-06-10T05:05:52.598Z,6.33
2019-06-10T05:08:23.512Z,5.67
2019-06-10T05:10:52.964Z,5.50
2019-06-10T05:13:23.797Z,5.90
2019-06-10T05:15:52.730Z,6.20
2019-06-10T05:18:23.847Z,5.97
2019-06-10T05:20:58.228Z,6.20
2019-06-10T05:23:22.473Z,6.70
2019-06-10T05:25:52.668Z,6.17
2019-06-10T05:28:23.014Z,6.70
2019-06-10T05:30:53.184Z,6.83
2019-06-10T05:36:02.308Z,6.45
2019-06-10T05:38:34.737Z,5.93
2019-06-10T05:41:02.623Z,6.77
2019-06-10T05:43:32.926Z,6.30
2019-06-10T05:46:02.911Z,6.47
2019-06-10T05:48:31.002Z,6.53
2019-06-10T05:51:05.748Z,6.20
2019-06-10T05:53:31.520Z,6.00
2019-06-10T05:56:02.236Z,6.83
2019-06-10T05:58:32.738Z,6.13
2019-06-10T06:01:02.510Z,6.47
2019-06-10T06:03:33.423Z,7.12
2019-06-10T06:06:02.893Z,6.10
2019-06-10T06:08:33.347Z,7.35
2019-06-10T06:11:02.962Z,6.85
2019-06-10T06:13:34.203Z,5.90
2019-06-10T06:16:03.018Z,5.47
2019-06-10T06:18:33.208Z,5.63
2019-06-10T06:21:17.168Z,6.07
2019-06-10T06:23:33.340Z,5.63
2019-06-10T06:26:03.638Z,6.17
2019-06-10T06:28:32.905Z,5.70
2019-06-10T06:31:00.429Z,5.23
2019-06-10T06:33:29.412Z,5.57
2019-06-10T06:35:58.722Z,5.50
2019-06-10T06:38:27.011Z,5.60
2019-06-10T06:40:55.331Z,6.70
2019-06-10T06:43:23.608Z,5.87
2019-06-10T06:45:53.127Z,5.17
2019-06-10T06:48:22.750Z,5.30
2019-06-10T06:51:04.577Z,5.90
2019-06-10T06:53:32.370Z,5.87
2019-06-10T06:55:55.795Z,5.83
2019-06-10T06:58:23.174Z,5.65
2019-06-10T07:01:01.890Z,4.97
2019-06-10T07:03:22.987Z,4.90
2019-06-10T07:06:25.366Z,5.80
2019-06-10T07:09:26.957Z,5.75
2019-06-10T07:12:28.403Z,6.53
2019-06-10T07:14:56.678Z,6.10
2019-06-10T07:17:24.976Z,6.50
2019-06-10T07:20:12.700Z,5.67
2019-06-10T07:22:42.719Z,5.47
2019-06-10T07:25:47.090Z,5.47
2019-06-10T07:28:14.642Z,5.67
2019-06-10T07:30:51.051Z,6.30
2019-06-10T07:33:12.933Z,6.47
2019-06-10T07:35:43.755Z,5.70
2019-06-10T07:38:12.219Z,5.93
2019-06-10T07:41:02.616Z,5.53
2019-06-10T07:43:32.387Z,5.75
2019-06-10T07:46:00.357Z,5.63
2019-06-10T07:48:28.642Z,5.07
2019-06-10T07:50:56.927Z,5.50
2019-06-10T07:53:25.223Z,5.10
2019-06-10T07:55:53.669Z,4.70
2019-06-10T07:58:22.527Z,4.58
2019-06-10T08:00:53.382Z,4.70
2019-06-10T08:03:22.532Z,4.53
2019-06-10T08:05:52.513Z,4.87
2019-06-10T08:08:23.506Z,4.70
2019-06-10T08:10:52.919Z,4.53
2019-06-10T08:13:22.642Z,4.47
2019-06-10T08:15:53.249Z,4.50
2019-06-10T08:18:22.604Z,4.00
2019-06-10T08:20:52.856Z,4.28
2019-06-10T08:23:55.676Z,4.80
2019-06-10T08:26:23.970Z,4.53
2019-06-10T08:28:53.018Z,5.05
2019-06-10T08:31:22.723Z,4.63
2019-06-10T08:33:53.347Z,6.25
2019-06-10T08:37:04.277Z,4.70
2019-06-10T08:42:19.898Z,4.70
2019-06-10T08:44:48.600Z,4.97
2019-06-10T08:47:18.197Z,4.80
2019-06-10T08:49:49.013Z,5.17
2019-06-10T08:52:16.472Z,4.47
2019-06-10T08:54:47.933Z,5.90
2019-06-10T08:57:14.763Z,4.70
2019-06-10T08:59:46.019Z,4.63
2019-06-10T09:02:13.474Z,4.63
2019-06-10T09:04:46.027Z,4.40
2019-06-10T09:07:13.049Z,4.85
2019-06-10T09:09:45.743Z,4.70
2019-06-10T09:12:27.917Z,4.74
2019-06-10T09:14:44.035Z,5.30
2019-06-10T09:17:13.291Z,4.90
2019-06-10T09:19:46.402Z,4.60
2019-06-10T09:22:12.645Z,4.03
2019-06-10T09:24:47.043Z,5.10
2019-06-10T09:27:12.978Z,4.93
2019-06-10T09:29:46.179Z,4.30
2019-06-10T09:32:12.571Z,4.72
2019-06-10T09:34:43.039Z,4.60
2019-06-10T09:37:12.446Z,4.87
2019-06-10T09:39:59.214Z,4.87
2019-06-10T09:42:23.905Z,4.77
2019-06-10T09:45:26.219Z,5.90
2019-06-10T09:48:28.380Z,4.40
2019-06-10T09:50:58.597Z,4.70
2019-06-10T09:53:38.964Z,4.58
2019-06-10T09:55:56.797Z,4.40
2019-06-10T09:58:25.078Z,4.40
2019-06-10T10:01:33.400Z,4.62
2019-06-10T10:04:01.715Z,3.93
2019-06-10T10:06:32.545Z,4.70
2019-06-10T10:09:00.110Z,4.30
2019-06-10T10:11:28.751Z,3.80
2019-06-10T10:13:58.384Z,4.75
2019-06-10T10:16:26.676Z,3.90
2019-06-10T10:19:00.220Z,4.57
2019-06-10T10:21:24.995Z,5.00
2019-06-10T10:24:06.351Z,4.63
2019-06-10T10:26:23.292Z,4.30
2019-06-10T10:28:53.196Z,4.77
2019-06-10T10:31:23.275Z,5.00
2019-06-10T10:33:52.629Z,6.50
2019-06-10T10:36:22.563Z,4.27
2019-06-10T10:38:50.950Z,4.70
2019-06-10T10:41:19.238Z,4.53
2019-06-10T10:43:51.168Z,5.78
2019-06-10T10:46:17.515Z,4.20
2019-06-10T10:48:46.996Z,5.08
2019-06-10T10:51:15.812Z,4.40
2019-06-10T10:53:48.401Z,4.94
2019-06-10T10:56:14.131Z,4.85
2019-06-10T10:58:43.718Z,5.10
2019-06-10T11:01:14.966Z,5.30
2019-06-10T11:04:03.920Z,4.60
2019-06-10T11:06:32.423Z,5.60
2019-06-10T11:09:00.610Z,4.60
2019-06-10T11:11:52.222Z,4.40
2019-06-10T11:14:19.785Z,4.70
2019-06-10T11:16:49.499Z,4.50
2019-06-10T11:19:18.057Z,4.83
2019-06-10T11:21:47.409Z,4.50
2019-06-10T11:26:58.273Z,4.90
2019-06-10T11:29:26.836Z,4.03
2019-06-10T11:31:57.409Z,5.23
2019-06-10T11:34:25.100Z,5.13
2019-06-10T11:36:55.232Z,5.10
2019-06-10T11:39:23.377Z,5.40
2019-06-10T11:41:53.270Z,5.53
2019-06-10T11:44:22.465Z,5.43
2019-06-10T11:46:54.451Z,5.53
2019-06-10T11:49:23.775Z,5.30
2019-06-10T11:51:54.284Z,6.00
2019-06-10T11:54:50.582Z,5.83
2019-06-10T11:57:04.691Z,6.03
2019-06-10T11:59:32.962Z,6.40
2019-06-10T12:02:05.669Z,5.57
2019-06-10T12:04:31.259Z,5.13
2019-06-10T12:07:02.198Z,5.47
2019-06-10T12:09:29.704Z,5.67
2019-06-10T12:12:01.274Z,5.87
2019-06-10T12:14:28.004Z,4.78
2019-06-10T12:19:26.272Z,5.30
2019-06-10T12:21:57.739Z,6.00
2019-06-10T12:24:24.586Z,6.23
2019-06-10T12:26:55.526Z,5.80
2019-06-10T12:29:22.877Z,5.00
2019-06-10T12:31:54.093Z,5.50
2019-06-10T12:34:22.683Z,5.10
2019-06-10T12:36:56.233Z,5.05
2019-06-10T12:39:22.897Z,4.80
2019-06-10T12:41:54.633Z,4.63
2019-06-10T12:44:22.820Z,5.33
2019-06-10T12:46:53.942Z,5.70
2019-06-10T12:49:21.195Z,5.77
2019-06-10T12:51:49.456Z,5.40
2019-06-10T12:54:17.724Z,5.77
2019-06-10T12:56:46.002Z,5.77
2019-06-10T12:59:14.271Z,5.77
2019-06-10T13:01:44.754Z,5.50
2019-06-10T13:04:45.892Z,5.93
2019-06-10T13:07:26.157Z,5.80
2019-06-10T13:10:34.461Z,4.90
2019-06-10T13:13:06.707Z,5.80
2019-06-10T13:15:32.962Z,5.63
2019-06-10T13:18:03.913Z,5.93
2019-06-10T13:20:32.168Z,5.57
2019-06-10T13:23:07.302Z,5.40
2019-06-10T13:25:33.383Z,6.00
2019-06-10T13:28:04.196Z,5.90
2019-06-10T13:30:34.143Z,5.87
2019-06-10T13:33:06.662Z,6.30
2019-06-10T13:35:32.228Z,5.40
2019-06-10T13:38:04.159Z,5.40
2019-06-10T13:40:32.050Z,6.10
2019-06-10T13:43:01.852Z,5.33
2019-06-10T13:45:30.223Z,4.80
2019-06-10T13:47:58.804Z,5.63
2019-06-10T13:50:27.216Z,6.07
2019-06-10T13:52:55.486Z,5.53
2019-06-10T13:55:23.815Z,5.50
2019-06-10T13:57:53.239Z,5.30
2019-06-10T14:03:23.741Z,5.27
2019-06-10T14:05:57.608Z,4.97
2019-06-10T14:08:23.370Z,5.63
2019-06-10T14:10:53.989Z,5.70
2019-06-10T14:13:23.494Z,4.50
2019-06-10T14:18:32.634Z,5.03
2019-06-10T14:21:04.929Z,5.00
2019-06-10T14:23:33.138Z,5.10
2019-06-10T14:26:03.274Z,5.50
2019-06-10T14:28:40.694Z,4.67
2019-06-10T14:31:38.731Z,5.00
2019-06-10T14:33:53.115Z,6.33
2019-06-10T14:36:22.193Z,6.70
2019-06-10T14:38:50.577Z,5.50
2019-06-10T14:41:18.881Z,5.70
2019-06-10T14:43:47.142Z,5.80
2019-06-10T14:46:17.451Z,5.83
2019-06-10T14:48:45.421Z,5.35
2019-06-10T14:51:15.783Z,4.73
2019-06-10T14:53:43.705Z,5.97
2019-06-10T14:56:14.864Z,5.13
2019-06-10T14:58:42.502Z,5.28
2019-06-10T15:01:32.154Z,4.80
2019-06-10T15:04:02.983Z,5.83
2019-06-10T15:06:33.815Z,5.77
2019-06-10T15:09:01.365Z,5.13
2019-06-10T15:11:32.018Z,6.37
2019-06-10T15:13:59.672Z,5.90
2019-06-10T15:16:27.935Z,5.83
2019-06-10T15:19:10.954Z,4.70
2019-06-10T15:21:26.246Z,5.67
2019-06-10T15:23:54.528Z,6.58
2019-06-10T15:26:22.796Z,4.70
2019-06-10T15:31:30.197Z,4.93
2019-06-10T15:33:58.433Z,6.57
2019-06-10T15:36:26.712Z,5.23
2019-06-10T15:38:54.990Z,5.20
2019-06-10T15:41:24.645Z,5.67
2019-06-10T15:43:53.278Z,6.40
2019-06-10T15:46:22.376Z,5.28
2019-06-10T15:48:53.914Z,7.20
2019-06-10T15:51:25.109Z,5.77
2019-06-10T15:56:43.769Z,5.23
2019-06-10T15:58:59.706Z,5.70
2019-06-10T16:01:27.979Z,5.30
2019-06-10T16:03:56.255Z,6.73
2019-06-10T16:06:24.531Z,6.00
2019-06-10T16:08:53.058Z,5.67
2019-06-10T16:11:25.484Z,5.33
2019-06-10T16:13:53.389Z,7.17
2019-06-10T16:16:21.348Z,5.53
2019-06-10T16:18:49.641Z,5.43
2019-06-10T16:21:19.122Z,6.30
2019-06-10T16:23:47.931Z,6.05
2019-06-10T16:26:16.322Z,5.60
2019-06-10T16:29:03.907Z,5.97
2019-06-10T16:31:32.191Z,5.60
2019-06-10T16:34:04.124Z,5.80
2019-06-10T16:39:09.501Z,6.27
2019-06-10T16:41:37.792Z,6.20
2019-06-10T16:44:06.075Z,6.10
2019-06-10T16:46:34.429Z,6.33
2019-06-10T16:49:03.253Z,5.73
2019-06-10T16:51:32.699Z,6.40
2019-06-10T16:54:02.408Z,6.47
2019-06-10T16:56:33.606Z,5.47
2019-06-10T16:59:02.961Z,8.10
2019-06-10T17:01:33.171Z,7.90
2019-06-10T17:04:01.082Z,6.27
2019-06-10T17:06:29.937Z,6.42
2019-06-10T17:08:59.378Z,6.27
2019-06-10T17:11:29.397Z,6.17
2019-06-10T17:13:57.712Z,7.10
2019-06-10T17:16:27.642Z,6.70
2019-06-10T17:18:55.983Z,7.80
2019-06-10T17:21:28.061Z,6.80
2019-06-10T17:23:54.307Z,7.83
2019-06-10T17:26:29.437Z,7.40
2019-06-10T17:28:52.570Z,7.00
2019-06-10T17:31:25.790Z,7.40
2019-06-10T17:33:53.125Z,8.83
2019-06-10T17:36:25.736Z,7.40
2019-06-10T17:38:52.348Z,8.60
2019-06-10T17:41:24.072Z,8.40
2019-06-10T17:43:52.087Z,9.03
2019-06-10T17:46:23.585Z,8.17
2019-06-10T17:48:52.137Z,8.30
2019-06-10T17:51:22.870Z,8.63
2019-06-10T17:53:52.978Z,9.08
2019-06-10T17:56:23.087Z,8.77
2019-06-10T17:58:57.011Z,8.30
2019-06-10T18:01:22.563Z,8.73
2019-06-10T18:04:04.060Z,9.53
2019-06-10T18:06:36.128Z,8.47
2019-06-10T18:09:04.015Z,9.50
2019-06-10T18:11:34.515Z,9.50
2019-06-10T18:14:02.759Z,9.53
2019-06-10T18:16:35.873Z,11.18
2019-06-10T18:19:03.367Z,12.30
2019-06-10T18:21:33.485Z,9.88
2019-06-10T18:24:15.459Z,10.80
2019-06-10T18:26:43.743Z,9.40
2019-06-10T18:29:12.859Z,10.87
2019-06-10T18:31:42.693Z,10.80
2019-06-10T18:34:13.130Z,11.27
2019-06-10T18:36:42.772Z,10.87
2019-06-10T18:39:12.467Z,9.80
2019-06-10T18:41:43.585Z,9.90
2019-06-10T18:44:22.534Z,11.03
2019-06-10T18:46:43.277Z,10.80
2019-06-10T18:49:13.284Z,11.07
2019-06-10T18:51:43.455Z,11.73
2019-06-10T18:54:12.850Z,10.40
2019-06-10T18:56:43.036Z,10.80
2019-06-10T18:59:20.510Z,10.80
2019-06-10T19:01:42.519Z,10.83
2019-06-10T19:04:12.956Z,10.77
2019-06-10T19:09:12.625Z,10.47
2019-06-10T19:11:53.471Z,10.70
2019-06-10T19:14:12.630Z,10.20
2019-06-10T19:16:40.227Z,9.93
2019-06-10T19:19:08.487Z,10.10
2019-06-10T19:21:36.805Z,9.97
2019-06-10T19:24:45.133Z,10.13
2019-06-10T19:27:13.409Z,10.65
2019-06-10T19:29:50.089Z,10.93
2019-06-10T19:32:12.549Z,9.75
2019-06-10T19:34:47.261Z,10.23
2019-06-10T19:37:12.864Z,9.50
2019-06-10T19:39:50.056Z,9.87
2019-06-10T19:42:13.060Z,10.23
2019-06-10T19:44:45.579Z,11.07
2019-06-10T19:47:12.986Z,11.27
2019-06-10T19:49:43.660Z,12.03
2019-06-10T19:52:12.110Z,10.85
2019-06-10T19:54:43.494Z,11.13
2019-06-10T19:57:12.733Z,11.63
2019-06-10T19:59:55.861Z,12.10
2019-06-10T20:02:10.478Z,11.25
2019-06-10T20:04:39.786Z,10.33
2019-06-10T20:07:08.774Z,11.45
2019-06-10T20:09:38.058Z,11.53
2019-06-10T20:14:47.629Z,11.37
2019-06-10T20:17:16.430Z,11.68
2019-06-10T20:19:45.975Z,14.78
2019-06-10T20:22:14.727Z,13.72
2019-06-10T20:24:44.752Z,13.05
2019-06-10T20:27:13.029Z,13.93
2019-06-10T20:29:43.001Z,13.20
2019-06-10T20:32:11.334Z,12.53
2019-06-10T20:34:39.686Z,12.30
2019-06-10T20:37:07.961Z,12.60
2019-06-10T20:39:36.258Z,11.45
2019-06-10T20:42:04.536Z,10.83
2019-06-10T20:44:32.828Z,10.47
2019-06-10T20:47:01.110Z,10.77
2019-06-10T20:49:29.392Z,10.40
2019-06-10T20:52:09.953Z,10.93
2019-06-10T20:54:27.683Z,11.10
2019-06-10T20:56:55.974Z,10.30
2019-06-10T20:59:25.997Z,9.95
2019-06-10T21:01:54.463Z,10.00
2019-06-10T21:04:22.742Z,10.82
2019-06-10T21:06:53.153Z,11.30
2019-06-10T21:09:33.595Z,11.73
2019-06-10T21:12:02.168Z,10.63
2019-06-10T21:14:33.115Z,10.20
2019-06-10T21:17:02.974Z,12.00
2019-06-10T21:19:33.107Z,11.30
2019-06-10T21:22:02.732Z,11.80
2019-06-10T21:24:32.439Z,9.03
2019-06-10T21:27:02.196Z,10.67
2019-06-10T21:29:32.301Z,10.00
2019-06-10T21:32:03.284Z,11.17
2019-06-10T21:34:32.727Z,10.48
2019-06-10T21:37:02.999Z,12.37
2019-06-10T21:39:32.222Z,12.55
2019-06-10T21:42:02.258Z,14.03
2019-06-10T21:44:32.038Z,14.70
2019-06-10T21:47:02.544Z,14.98
2019-06-10T21:49:32.216Z,15.70
2019-06-10T21:52:02.825Z,15.30
2019-06-10T21:54:32.934Z,15.13
2019-06-10T21:57:02.634Z,15.30
2019-06-10T21:59:32.138Z,13.57
2019-06-10T22:02:02.329Z,13.70
2019-06-10T22:04:32.668Z,15.57
2019-06-10T22:07:03.096Z,14.83
2019-06-10T22:09:44.028Z,15.32
2019-06-10T22:12:12.335Z,17.63
2019-06-10T22:14:42.229Z,17.23
2019-06-10T22:17:42.682Z,18.45
2019-06-10T22:20:12.354Z,18.77
2019-06-10T22:25:22.249Z,20.73
2019-06-10T22:27:50.110Z,21.48
2019-06-10T22:30:18.715Z,19.10
2019-06-10T22:32:47.247Z,19.77
2019-06-10T22:35:17.037Z,20.02
2019-06-10T22:37:45.628Z,20.23
2019-06-10T22:40:15.414Z,20.90
2019-06-10T22:42:43.698Z,20.83
2019-06-10T22:45:13.146Z,22.30
2019-06-10T22:47:42.648Z,23.02
2019-06-10T22:50:53.301Z,22.37
2019-06-10T22:53:23.227Z,22.90
2019-06-10T22:55:53.458Z,24.87
2019-06-10T22:58:23.689Z,24.57
2019-06-10T23:00:53.228Z,27.00
2019-06-10T23:03:22.237Z,28.50
2019-06-10T23:05:50.542Z,26.37
2019-06-10T23:08:18.833Z,28.35
2019-06-10T23:10:48.489Z,27.90
2019-06-10T23:13:17.188Z,29.33
2019-06-10T23:15:45.443Z,26.77
2019-06-10T23:18:13.748Z,27.93
2019-06-10T23:20:42.839Z,29.57
2019-06-10T23:23:12.767Z,28.67
2019-06-10T23:25:42.961Z,28.33
2019-06-10T23:28:13.112Z,31.47
2019-06-10T23:30:42.952Z,29.80
2019-06-10T23:33:12.576Z,29.67
2019-06-10T23:35:43.083Z,33.25
2019-06-10T23:38:13.163Z,32.48
2019-06-10T23:40:42.904Z,30.65
2019-06-10T23:43:13.315Z,30.80
2019-06-10T23:45:55.170Z,28.50
2019-06-10T23:48:23.417Z,27.00
2019-06-10T23:50:54.035Z,26.03
2019-06-10T23:53:23.203Z,28.43
2019-06-10T23:56:24.902Z,26.60
2019-06-10T23:58:55.558Z,22.40
